sensor_id;sensor_type;location;lat;lon;timestamp;P1;durP1;ratioP1;P2;durP2;ratioP2
76155;SDS011;64906;51.290;7.348;2023-04-03T00:00:51;3.80;;;1.70;;
76155;SDS011;64906;51.290;7.348;2023-04-03T00:03:17;3.80;;;1.50;;
76155;SDS011;64906;51.290;7.348;2023-04-03T00:05:43;4.38;;;1.90;;
76155;SDS011;64906;51.290;7.348;2023-04-03T00:08:08;4.33;;;1.80;;
76155;SDS011;64906;51.290;7.348;2023-04-03T00:10:35;3.83;;;1.92;;
76155;SDS011;64906;51.290;7.348;2023-04-03T00:13:02;3.63;;;1.88;;
76155;SDS011;64906;51.290;7.348;2023-04-03T00:15:30;4.43;;;1.55;;
76155;SDS011;64906;51.290;7.348;2023-04-03T00:17:56;3.78;;;1.60;;
76155;SDS011;64906;51.290;7.348;2023-04-03T00:20:21;3.20;;;1.60;;
76155;SDS011;64906;51.290;7.348;2023-04-03T00:22:47;3.15;;;1.58;;
76155;SDS011;64906;51.290;7.348;2023-04-03T00:25:12;3.43;;;1.60;;
76155;SDS011;64906;51.290;7.348;2023-04-03T00:27:38;4.00;;;1.73;;
76155;SDS011;64906;51.290;7.348;2023-04-03T00:30:04;3.40;;;1.70;;
76155;SDS011;64906;51.290;7.348;2023-04-03T00:32:31;3.92;;;1.60;;
76155;SDS011;64906;51.290;7.348;2023-04-03T00:34:57;3.55;;;1.23;;
76155;SDS011;64906;51.290;7.348;2023-04-03T00:37:23;3.75;;;1.88;;
76155;SDS011;64906;51.290;7.348;2023-04-03T00:39:48;3.47;;;1.73;;
76155;SDS011;64906;51.290;7.348;2023-04-03T00:42:13;3.23;;;1.40;;
76155;SDS011;64906;51.290;7.348;2023-04-03T00:47:05;4.23;;;1.53;;
76155;SDS011;64906;51.290;7.348;2023-04-03T00:49:33;3.53;;;1.42;;
76155;SDS011;64906;51.290;7.348;2023-04-03T00:52:00;3.40;;;1.50;;
76155;SDS011;64906;51.290;7.348;2023-04-03T00:54:26;3.50;;;1.88;;
76155;SDS011;64906;51.290;7.348;2023-04-03T00:56:52;3.13;;;1.52;;
76155;SDS011;64906;51.290;7.348;2023-04-03T00:59:22;3.80;;;1.83;;
76155;SDS011;64906;51.290;7.348;2023-04-03T01:01:52;3.30;;;1.70;;
76155;SDS011;64906;51.290;7.348;2023-04-03T01:04:26;3.78;;;1.73;;
76155;SDS011;64906;51.290;7.348;2023-04-03T01:06:56;4.00;;;1.75;;
76155;SDS011;64906;51.290;7.348;2023-04-03T01:09:26;3.47;;;1.60;;
76155;SDS011;64906;51.290;7.348;2023-04-03T01:11:53;3.70;;;1.80;;
76155;SDS011;64906;51.290;7.348;2023-04-03T01:14:18;2.93;;;1.37;;
76155;SDS011;64906;51.290;7.348;2023-04-03T01:16:51;4.17;;;1.37;;
76155;SDS011;64906;51.290;7.348;2023-04-03T01:19:19;3.05;;;1.50;;
76155;SDS011;64906;51.290;7.348;2023-04-03T01:21:56;3.65;;;1.80;;
76155;SDS011;64906;51.290;7.348;2023-04-03T01:24:36;3.40;;;1.48;;
76155;SDS011;64906;51.290;7.348;2023-04-03T01:27:04;3.80;;;1.50;;
76155;SDS011;64906;51.290;7.348;2023-04-03T01:29:30;3.35;;;1.45;;
76155;SDS011;64906;51.290;7.348;2023-04-03T01:31:57;4.33;;;1.70;;
76155;SDS011;64906;51.290;7.348;2023-04-03T01:34:23;3.67;;;1.30;;
76155;SDS011;64906;51.290;7.348;2023-04-03T01:36:49;3.45;;;1.48;;
76155;SDS011;64906;51.290;7.348;2023-04-03T01:39:15;3.55;;;1.60;;
76155;SDS011;64906;51.290;7.348;2023-04-03T01:41:41;3.20;;;1.48;;
76155;SDS011;64906;51.290;7.348;2023-04-03T01:44:06;3.50;;;1.40;;
76155;SDS011;64906;51.290;7.348;2023-04-03T01:46:32;3.00;;;1.40;;
76155;SDS011;64906;51.290;7.348;2023-04-03T01:48:57;3.50;;;1.58;;
76155;SDS011;64906;51.290;7.348;2023-04-03T01:51:23;3.55;;;1.42;;
76155;SDS011;64906;51.290;7.348;2023-04-03T01:53:48;3.03;;;1.40;;
76155;SDS011;64906;51.290;7.348;2023-04-03T01:56:13;3.90;;;1.55;;
76155;SDS011;64906;51.290;7.348;2023-04-03T01:58:39;3.35;;;1.10;;
76155;SDS011;64906;51.290;7.348;2023-04-03T02:01:04;3.20;;;1.60;;
76155;SDS011;64906;51.290;7.348;2023-04-03T02:03:30;3.53;;;1.70;;
76155;SDS011;64906;51.290;7.348;2023-04-03T02:05:55;3.47;;;1.52;;
76155;SDS011;64906;51.290;7.348;2023-04-03T02:08:21;3.77;;;1.50;;
76155;SDS011;64906;51.290;7.348;2023-04-03T02:10:47;4.40;;;1.40;;
76155;SDS011;64906;51.290;7.348;2023-04-03T02:13:13;3.30;;;1.60;;
76155;SDS011;64906;51.290;7.348;2023-04-03T02:15:38;3.43;;;1.50;;
76155;SDS011;64906;51.290;7.348;2023-04-03T02:18:04;4.20;;;1.70;;
76155;SDS011;64906;51.290;7.348;2023-04-03T02:20:30;3.97;;;1.65;;
76155;SDS011;64906;51.290;7.348;2023-04-03T02:22:55;3.70;;;1.50;;
76155;SDS011;64906;51.290;7.348;2023-04-03T02:25:21;3.80;;;1.60;;
76155;SDS011;64906;51.290;7.348;2023-04-03T02:27:46;3.80;;;1.63;;
76155;SDS011;64906;51.290;7.348;2023-04-03T02:30:11;2.90;;;1.33;;
76155;SDS011;64906;51.290;7.348;2023-04-03T02:32:37;3.40;;;1.33;;
76155;SDS011;64906;51.290;7.348;2023-04-03T02:35:03;3.20;;;1.15;;
76155;SDS011;64906;51.290;7.348;2023-04-03T02:37:28;3.17;;;1.30;;
76155;SDS011;64906;51.290;7.348;2023-04-03T02:39:54;3.05;;;1.48;;
76155;SDS011;64906;51.290;7.348;2023-04-03T02:42:19;3.55;;;1.50;;
76155;SDS011;64906;51.290;7.348;2023-04-03T02:44:45;3.67;;;1.67;;
76155;SDS011;64906;51.290;7.348;2023-04-03T02:47:10;5.00;;;1.67;;
76155;SDS011;64906;51.290;7.348;2023-04-03T02:49:35;3.30;;;1.50;;
76155;SDS011;64906;51.290;7.348;2023-04-03T02:52:00;3.47;;;1.47;;
76155;SDS011;64906;51.290;7.348;2023-04-03T02:54:26;3.57;;;1.33;;
76155;SDS011;64906;51.290;7.348;2023-04-03T02:56:53;3.60;;;1.20;;
76155;SDS011;64906;51.290;7.348;2023-04-03T02:59:19;3.53;;;1.42;;
76155;SDS011;64906;51.290;7.348;2023-04-03T03:01:45;3.42;;;1.52;;
76155;SDS011;64906;51.290;7.348;2023-04-03T03:04:11;3.22;;;1.60;;
76155;SDS011;64906;51.290;7.348;2023-04-03T03:06:36;3.03;;;1.40;;
76155;SDS011;64906;51.290;7.348;2023-04-03T03:09:01;3.17;;;1.35;;
76155;SDS011;64906;51.290;7.348;2023-04-03T03:11:28;3.03;;;1.45;;
76155;SDS011;64906;51.290;7.348;2023-04-03T03:13:54;3.28;;;1.40;;
76155;SDS011;64906;51.290;7.348;2023-04-03T03:16:20;3.13;;;1.30;;
76155;SDS011;64906;51.290;7.348;2023-04-03T03:18:45;3.30;;;1.30;;
76155;SDS011;64906;51.290;7.348;2023-04-03T03:21:10;3.03;;;1.27;;
76155;SDS011;64906;51.290;7.348;2023-04-03T03:23:36;3.95;;;1.52;;
76155;SDS011;64906;51.290;7.348;2023-04-03T03:26:03;3.70;;;1.63;;
76155;SDS011;64906;51.290;7.348;2023-04-03T03:28:30;3.58;;;1.40;;
76155;SDS011;64906;51.290;7.348;2023-04-03T03:30:56;3.50;;;1.30;;
76155;SDS011;64906;51.290;7.348;2023-04-03T03:33:22;3.33;;;1.40;;
76155;SDS011;64906;51.290;7.348;2023-04-03T03:35:48;5.30;;;1.58;;
76155;SDS011;64906;51.290;7.348;2023-04-03T03:38:13;3.00;;;1.50;;
76155;SDS011;64906;51.290;7.348;2023-04-03T03:40:39;2.67;;;1.00;;
76155;SDS011;64906;51.290;7.348;2023-04-03T03:43:04;3.38;;;1.45;;
76155;SDS011;64906;51.290;7.348;2023-04-03T03:45:30;3.47;;;1.52;;
76155;SDS011;64906;51.290;7.348;2023-04-03T03:47:56;3.58;;;1.42;;
76155;SDS011;64906;51.290;7.348;2023-04-03T03:50:21;3.47;;;1.55;;
76155;SDS011;64906;51.290;7.348;2023-04-03T03:52:46;3.33;;;1.40;;
76155;SDS011;64906;51.290;7.348;2023-04-03T03:55:12;3.30;;;1.50;;
76155;SDS011;64906;51.290;7.348;2023-04-03T03:57:37;3.53;;;1.33;;
76155;SDS011;64906;51.290;7.348;2023-04-03T04:00:03;3.08;;;1.27;;
76155;SDS011;64906;51.290;7.348;2023-04-03T04:02:29;3.47;;;1.42;;
76155;SDS011;64906;51.290;7.348;2023-04-03T04:04:54;3.28;;;1.30;;
76155;SDS011;64906;51.290;7.348;2023-04-03T04:07:21;2.85;;;1.15;;
76155;SDS011;64906;51.290;7.348;2023-04-03T04:09:46;3.72;;;1.65;;
76155;SDS011;64906;51.290;7.348;2023-04-03T04:12:12;3.67;;;1.47;;
76155;SDS011;64906;51.290;7.348;2023-04-03T04:14:37;3.40;;;1.43;;
76155;SDS011;64906;51.290;7.348;2023-04-03T04:17:02;3.43;;;1.30;;
76155;SDS011;64906;51.290;7.348;2023-04-03T04:19:28;3.65;;;1.48;;
76155;SDS011;64906;51.290;7.348;2023-04-03T04:21:53;4.25;;;1.40;;
76155;SDS011;64906;51.290;7.348;2023-04-03T04:24:19;3.08;;;1.30;;
76155;SDS011;64906;51.290;7.348;2023-04-03T04:26:44;2.65;;;0.90;;
76155;SDS011;64906;51.290;7.348;2023-04-03T04:29:09;4.00;;;1.30;;
76155;SDS011;64906;51.290;7.348;2023-04-03T04:31:35;3.20;;;1.13;;
76155;SDS011;64906;51.290;7.348;2023-04-03T04:34:00;2.78;;;1.20;;
76155;SDS011;64906;51.290;7.348;2023-04-03T04:36:26;3.67;;;1.33;;
76155;SDS011;64906;51.290;7.348;2023-04-03T04:38:51;3.00;;;1.10;;
76155;SDS011;64906;51.290;7.348;2023-04-03T04:41:19;3.78;;;1.20;;
76155;SDS011;64906;51.290;7.348;2023-04-03T04:43:47;3.70;;;1.20;;
76155;SDS011;64906;51.290;7.348;2023-04-03T04:46:13;2.88;;;1.20;;
76155;SDS011;64906;51.290;7.348;2023-04-03T04:48:38;3.03;;;1.27;;
76155;SDS011;64906;51.290;7.348;2023-04-03T04:51:05;3.63;;;1.63;;
76155;SDS011;64906;51.290;7.348;2023-04-03T04:53:31;2.92;;;1.20;;
76155;SDS011;64906;51.290;7.348;2023-04-03T04:55:56;2.70;;;1.10;;
76155;SDS011;64906;51.290;7.348;2023-04-03T04:58:21;2.63;;;0.97;;
76155;SDS011;64906;51.290;7.348;2023-04-03T05:00:47;3.23;;;1.30;;
76155;SDS011;64906;51.290;7.348;2023-04-03T05:03:12;3.20;;;1.40;;
76155;SDS011;64906;51.290;7.348;2023-04-03T05:05:39;3.78;;;1.38;;
76155;SDS011;64906;51.290;7.348;2023-04-03T05:08:04;3.20;;;1.25;;
76155;SDS011;64906;51.290;7.348;2023-04-03T05:10:30;3.25;;;1.30;;
76155;SDS011;64906;51.290;7.348;2023-04-03T05:12:57;2.78;;;1.15;;
76155;SDS011;64906;51.290;7.348;2023-04-03T05:15:22;3.58;;;1.33;;
76155;SDS011;64906;51.290;7.348;2023-04-03T05:17:48;3.00;;;1.20;;
76155;SDS011;64906;51.290;7.348;2023-04-03T05:20:13;3.65;;;1.20;;
76155;SDS011;64906;51.290;7.348;2023-04-03T05:22:38;3.53;;;1.30;;
76155;SDS011;64906;51.290;7.348;2023-04-03T05:25:04;3.08;;;1.27;;
76155;SDS011;64906;51.290;7.348;2023-04-03T05:27:30;2.50;;;1.00;;
76155;SDS011;64906;51.290;7.348;2023-04-03T05:29:55;3.70;;;1.30;;
76155;SDS011;64906;51.290;7.348;2023-04-03T05:32:21;3.30;;;1.40;;
76155;SDS011;64906;51.290;7.348;2023-04-03T05:34:48;3.08;;;1.30;;
76155;SDS011;64906;51.290;7.348;2023-04-03T05:37:13;3.00;;;1.10;;
76155;SDS011;64906;51.290;7.348;2023-04-03T05:39:38;3.03;;;1.20;;
76155;SDS011;64906;51.290;7.348;2023-04-03T05:42:06;2.83;;;1.20;;
76155;SDS011;64906;51.290;7.348;2023-04-03T05:44:32;2.70;;;1.10;;
76155;SDS011;64906;51.290;7.348;2023-04-03T05:46:57;3.47;;;1.20;;
76155;SDS011;64906;51.290;7.348;2023-04-03T05:49:23;2.72;;;0.90;;
76155;SDS011;64906;51.290;7.348;2023-04-03T05:51:48;3.23;;;1.20;;
76155;SDS011;64906;51.290;7.348;2023-04-03T05:56:50;3.03;;;1.33;;
76155;SDS011;64906;51.290;7.348;2023-04-03T05:59:16;3.22;;;1.23;;
76155;SDS011;64906;51.290;7.348;2023-04-03T06:01:42;3.33;;;1.30;;
76155;SDS011;64906;51.290;7.348;2023-04-03T06:04:08;3.50;;;1.33;;
76155;SDS011;64906;51.290;7.348;2023-04-03T06:09:16;3.03;;;1.10;;
76155;SDS011;64906;51.290;7.348;2023-04-03T06:11:43;3.47;;;1.20;;
76155;SDS011;64906;51.290;7.348;2023-04-03T06:14:09;3.88;;;1.10;;
76155;SDS011;64906;51.290;7.348;2023-04-03T06:16:35;3.53;;;1.40;;
76155;SDS011;64906;51.290;7.348;2023-04-03T06:19:00;3.45;;;1.20;;
76155;SDS011;64906;51.290;7.348;2023-04-03T06:21:26;3.65;;;1.42;;
76155;SDS011;64906;51.290;7.348;2023-04-03T06:23:51;4.15;;;1.60;;
76155;SDS011;64906;51.290;7.348;2023-04-03T06:26:17;3.58;;;1.48;;
76155;SDS011;64906;51.290;7.348;2023-04-03T06:28:42;3.28;;;1.52;;
76155;SDS011;64906;51.290;7.348;2023-04-03T06:31:08;5.22;;;1.30;;
76155;SDS011;64906;51.290;7.348;2023-04-03T06:33:33;3.83;;;1.75;;
76155;SDS011;64906;51.290;7.348;2023-04-03T06:35:59;4.03;;;1.63;;
76155;SDS011;64906;51.290;7.348;2023-04-03T06:38:25;3.78;;;1.80;;
76155;SDS011;64906;51.290;7.348;2023-04-03T06:40:50;4.33;;;1.93;;
76155;SDS011;64906;51.290;7.348;2023-04-03T06:43:16;3.92;;;1.83;;
76155;SDS011;64906;51.290;7.348;2023-04-03T06:45:42;4.10;;;1.85;;
76155;SDS011;64906;51.290;7.348;2023-04-03T06:48:07;4.85;;;2.05;;
76155;SDS011;64906;51.290;7.348;2023-04-03T06:50:33;5.15;;;2.20;;
76155;SDS011;64906;51.290;7.348;2023-04-03T06:52:58;6.37;;;2.40;;
76155;SDS011;64906;51.290;7.348;2023-04-03T06:55:23;4.63;;;2.07;;
76155;SDS011;64906;51.290;7.348;2023-04-03T06:57:49;5.22;;;2.63;;
76155;SDS011;64906;51.290;7.348;2023-04-03T07:00:15;5.75;;;2.60;;
76155;SDS011;64906;51.290;7.348;2023-04-03T07:02:41;5.03;;;2.88;;
76155;SDS011;64906;51.290;7.348;2023-04-03T07:05:07;5.82;;;3.00;;
76155;SDS011;64906;51.290;7.348;2023-04-03T07:07:33;6.40;;;2.97;;
76155;SDS011;64906;51.290;7.348;2023-04-03T07:09:59;6.20;;;3.00;;
76155;SDS011;64906;51.290;7.348;2023-04-03T07:12:25;5.85;;;3.20;;
76155;SDS011;64906;51.290;7.348;2023-04-03T07:14:51;6.15;;;3.17;;
76155;SDS011;64906;51.290;7.348;2023-04-03T07:17:16;5.97;;;3.00;;
76155;SDS011;64906;51.290;7.348;2023-04-03T07:19:42;6.07;;;3.10;;
76155;SDS011;64906;51.290;7.348;2023-04-03T07:22:07;5.23;;;2.90;;
76155;SDS011;64906;51.290;7.348;2023-04-03T07:24:32;7.05;;;2.80;;
76155;SDS011;64906;51.290;7.348;2023-04-03T07:26:58;6.68;;;3.00;;
76155;SDS011;64906;51.290;7.348;2023-04-03T07:29:23;6.47;;;3.00;;
76155;SDS011;64906;51.290;7.348;2023-04-03T07:31:49;5.63;;;2.70;;
76155;SDS011;64906;51.290;7.348;2023-04-03T07:34:14;7.37;;;2.87;;
76155;SDS011;64906;51.290;7.348;2023-04-03T07:36:40;6.63;;;3.28;;
76155;SDS011;64906;51.290;7.348;2023-04-03T07:39:06;8.90;;;3.35;;
76155;SDS011;64906;51.290;7.348;2023-04-03T07:41:33;6.38;;;3.30;;
76155;SDS011;64906;51.290;7.348;2023-04-03T07:43:58;5.82;;;2.83;;
76155;SDS011;64906;51.290;7.348;2023-04-03T07:46:24;7.22;;;3.65;;
76155;SDS011;64906;51.290;7.348;2023-04-03T07:48:49;7.07;;;3.75;;
76155;SDS011;64906;51.290;7.348;2023-04-03T07:51:15;6.93;;;3.35;;
76155;SDS011;64906;51.290;7.348;2023-04-03T07:53:41;6.63;;;3.13;;
76155;SDS011;64906;51.290;7.348;2023-04-03T07:56:06;6.18;;;3.60;;
76155;SDS011;64906;51.290;7.348;2023-04-03T07:58:32;7.15;;;3.58;;
76155;SDS011;64906;51.290;7.348;2023-04-03T08:00:58;7.85;;;3.08;;
76155;SDS011;64906;51.290;7.348;2023-04-03T08:03:24;6.30;;;3.33;;
76155;SDS011;64906;51.290;7.348;2023-04-03T08:05:50;6.78;;;2.97;;
76155;SDS011;64906;51.290;7.348;2023-04-03T08:08:17;6.68;;;3.35;;
76155;SDS011;64906;51.290;7.348;2023-04-03T08:10:47;7.13;;;3.25;;
76155;SDS011;64906;51.290;7.348;2023-04-03T08:13:14;11.52;;;4.10;;
76155;SDS011;64906;51.290;7.348;2023-04-03T08:15:40;13.45;;;8.13;;
76155;SDS011;64906;51.290;7.348;2023-04-03T08:18:05;15.53;;;10.57;;
76155;SDS011;64906;51.290;7.348;2023-04-03T08:20:30;14.57;;;9.20;;
76155;SDS011;64906;51.290;7.348;2023-04-03T08:22:56;17.85;;;9.80;;
76155;SDS011;64906;51.290;7.348;2023-04-03T08:25:21;14.57;;;8.47;;
76155;SDS011;64906;51.290;7.348;2023-04-03T08:27:46;13.50;;;8.87;;
76155;SDS011;64906;51.290;7.348;2023-04-03T08:30:12;13.77;;;8.95;;
76155;SDS011;64906;51.290;7.348;2023-04-03T08:32:38;14.90;;;9.00;;
76155;SDS011;64906;51.290;7.348;2023-04-03T08:35:04;15.65;;;9.18;;
76155;SDS011;64906;51.290;7.348;2023-04-03T08:37:30;13.70;;;8.50;;
76155;SDS011;64906;51.290;7.348;2023-04-03T08:39:55;17.60;;;8.90;;
76155;SDS011;64906;51.290;7.348;2023-04-03T08:42:30;15.07;;;8.73;;
76155;SDS011;64906;51.290;7.348;2023-04-03T08:48:04;15.40;;;8.88;;
76155;SDS011;64906;51.290;7.348;2023-04-03T08:50:45;15.98;;;8.48;;
76155;SDS011;64906;51.290;7.348;2023-04-03T08:53:25;21.85;;;13.63;;
76155;SDS011;64906;51.290;7.348;2023-04-03T08:55:53;31.40;;;19.52;;
76155;SDS011;64906;51.290;7.348;2023-04-03T09:00:54;40.33;;;26.60;;
76155;SDS011;64906;51.290;7.348;2023-04-03T09:03:23;43.20;;;29.13;;
76155;SDS011;64906;51.290;7.348;2023-04-03T09:05:51;47.03;;;31.02;;
76155;SDS011;64906;51.290;7.348;2023-04-03T09:08:27;48.85;;;31.60;;
76155;SDS011;64906;51.290;7.348;2023-04-03T09:11:31;49.47;;;33.90;;
76155;SDS011;64906;51.290;7.348;2023-04-03T09:13:56;53.53;;;36.10;;
76155;SDS011;64906;51.290;7.348;2023-04-03T09:21:57;50.13;;;34.10;;
76155;SDS011;64906;51.290;7.348;2023-04-03T09:24:26;49.85;;;34.38;;
76155;SDS011;64906;51.290;7.348;2023-04-03T09:27:05;44.75;;;30.45;;
76155;SDS011;64906;51.290;7.348;2023-04-03T09:29:35;47.60;;;30.52;;
76155;SDS011;64906;51.290;7.348;2023-04-03T09:32:12;49.17;;;33.53;;
76155;SDS011;64906;51.290;7.348;2023-04-03T09:34:46;48.67;;;33.90;;
76155;SDS011;64906;51.290;7.348;2023-04-03T09:37:32;43.95;;;30.98;;
76155;SDS011;64906;51.290;7.348;2023-04-03T09:40:51;47.42;;;31.50;;
76155;SDS011;64906;51.290;7.348;2023-04-03T09:45:40;46.38;;;31.70;;
76155;SDS011;64906;51.290;7.348;2023-04-03T09:50:38;45.97;;;31.13;;
76155;SDS011;64906;51.290;7.348;2023-04-03T09:55:58;45.92;;;31.02;;
76155;SDS011;64906;51.290;7.348;2023-04-03T09:58:37;43.22;;;29.58;;
76155;SDS011;64906;51.290;7.348;2023-04-03T10:01:20;43.53;;;30.77;;
76155;SDS011;64906;51.290;7.348;2023-04-03T10:03:47;44.88;;;29.75;;
76155;SDS011;64906;51.290;7.348;2023-04-03T10:06:29;42.42;;;29.73;;
76155;SDS011;64906;51.290;7.348;2023-04-03T10:09:00;41.00;;;26.40;;
76155;SDS011;64906;51.290;7.348;2023-04-03T10:11:29;42.25;;;29.73;;
76155;SDS011;64906;51.290;7.348;2023-04-03T10:13:56;38.38;;;28.85;;
76155;SDS011;64906;51.290;7.348;2023-04-03T10:16:26;42.63;;;28.85;;
76155;SDS011;64906;51.290;7.348;2023-04-03T10:19:12;38.40;;;28.58;;
76155;SDS011;64906;51.290;7.348;2023-04-03T10:21:55;42.35;;;27.88;;
76155;SDS011;64906;51.290;7.348;2023-04-03T10:24:30;39.53;;;27.80;;
76155;SDS011;64906;51.290;7.348;2023-04-03T10:29:55;41.38;;;27.85;;
76155;SDS011;64906;51.290;7.348;2023-04-03T10:35:37;38.20;;;26.65;;
76155;SDS011;64906;51.290;7.348;2023-04-03T10:40:57;41.05;;;27.75;;
76155;SDS011;64906;51.290;7.348;2023-04-03T10:46:13;36.70;;;25.85;;
76155;SDS011;64906;51.290;7.348;2023-04-03T10:51:27;36.60;;;25.33;;
76155;SDS011;64906;51.290;7.348;2023-04-03T10:54:11;40.03;;;26.98;;
76155;SDS011;64906;51.290;7.348;2023-04-03T10:56:47;35.60;;;25.77;;
76155;SDS011;64906;51.290;7.348;2023-04-03T11:01:45;37.38;;;25.70;;
76155;SDS011;64906;51.290;7.348;2023-04-03T11:04:14;39.38;;;26.63;;
76155;SDS011;64906;51.290;7.348;2023-04-03T11:06:49;33.85;;;23.80;;
76155;SDS011;64906;51.290;7.348;2023-04-03T11:09:20;33.25;;;23.95;;
76155;SDS011;64906;51.290;7.348;2023-04-03T11:11:51;31.17;;;20.88;;
76155;SDS011;64906;51.290;7.348;2023-04-03T11:14:24;35.47;;;24.40;;
76155;SDS011;64906;51.290;7.348;2023-04-03T11:20:06;32.38;;;22.95;;
76155;SDS011;64906;51.290;7.348;2023-04-03T11:22:41;32.08;;;22.58;;
76155;SDS011;64906;51.290;7.348;2023-04-03T11:25:19;36.45;;;22.95;;
76155;SDS011;64906;51.290;7.348;2023-04-03T11:27:54;31.65;;;21.95;;
76155;SDS011;64906;51.290;7.348;2023-04-03T11:30:31;30.08;;;22.17;;
76155;SDS011;64906;51.290;7.348;2023-04-03T11:36:28;29.90;;;20.80;;
76155;SDS011;64906;51.290;7.348;2023-04-03T11:38:57;27.88;;;20.95;;
76155;SDS011;64906;51.290;7.348;2023-04-03T11:41:32;28.25;;;18.88;;
76155;SDS011;64906;51.290;7.348;2023-04-03T11:44:04;30.02;;;21.33;;
76155;SDS011;64906;51.290;7.348;2023-04-03T12:05:58;31.90;;;21.42;;
76155;SDS011;64906;51.290;7.348;2023-04-03T12:19:03;27.95;;;20.40;;
76155;SDS011;64906;51.290;7.348;2023-04-03T12:26:48;29.52;;;19.17;;
76155;SDS011;64906;51.290;7.348;2023-04-03T12:29:33;33.53;;;20.33;;
76155;SDS011;64906;51.290;7.348;2023-04-03T12:32:10;27.52;;;19.40;;
76155;SDS011;64906;51.290;7.348;2023-04-03T12:42:46;29.73;;;20.88;;
76155;SDS011;64906;51.290;7.348;2023-04-03T12:45:26;27.63;;;18.95;;
76155;SDS011;64906;51.290;7.348;2023-04-03T12:47:53;27.40;;;19.43;;
76155;SDS011;64906;51.290;7.348;2023-04-03T12:52:59;27.85;;;18.73;;
76155;SDS011;64906;51.290;7.348;2023-04-03T12:55:29;26.38;;;18.92;;
76155;SDS011;64906;51.290;7.348;2023-04-03T12:57:54;27.20;;;18.63;;
76155;SDS011;64906;51.290;7.348;2023-04-03T13:02:55;27.38;;;18.02;;
76155;SDS011;64906;51.290;7.348;2023-04-03T13:05:21;26.73;;;19.50;;
76155;SDS011;64906;51.290;7.348;2023-04-03T13:07:58;27.42;;;18.50;;
76155;SDS011;64906;51.290;7.348;2023-04-03T13:10:28;28.17;;;18.90;;
76155;SDS011;64906;51.290;7.348;2023-04-03T13:12:58;26.60;;;19.17;;
76155;SDS011;64906;51.290;7.348;2023-04-03T13:15:47;25.38;;;17.40;;
76155;SDS011;64906;51.290;7.348;2023-04-03T13:18:33;29.92;;;18.30;;
76155;SDS011;64906;51.290;7.348;2023-04-03T13:21:01;28.88;;;19.02;;
76155;SDS011;64906;51.290;7.348;2023-04-03T13:23:30;25.23;;;17.75;;
76155;SDS011;64906;51.290;7.348;2023-04-03T13:25:57;25.30;;;16.67;;
76155;SDS011;64906;51.290;7.348;2023-04-03T13:28:27;25.00;;;17.63;;
76155;SDS011;64906;51.290;7.348;2023-04-03T13:33:31;24.10;;;17.55;;
76155;SDS011;64906;51.290;7.348;2023-04-03T13:38:41;26.67;;;18.35;;
76155;SDS011;64906;51.290;7.348;2023-04-03T13:41:30;24.65;;;15.70;;
76155;SDS011;64906;51.290;7.348;2023-04-03T13:44:14;25.95;;;17.45;;
76155;SDS011;64906;51.290;7.348;2023-04-03T13:46:40;22.83;;;16.17;;
76155;SDS011;64906;51.290;7.348;2023-04-03T13:49:16;23.42;;;16.80;;
76155;SDS011;64906;51.290;7.348;2023-04-03T13:52:03;23.23;;;16.33;;
76155;SDS011;64906;51.290;7.348;2023-04-03T13:54:51;21.80;;;15.93;;
76155;SDS011;64906;51.290;7.348;2023-04-03T13:57:19;21.45;;;15.23;;
76155;SDS011;64906;51.290;7.348;2023-04-03T13:59:45;22.65;;;15.57;;
76155;SDS011;64906;51.290;7.348;2023-04-03T14:02:19;21.98;;;15.57;;
76155;SDS011;64906;51.290;7.348;2023-04-03T14:04:50;23.65;;;16.58;;
76155;SDS011;64906;51.290;7.348;2023-04-03T14:07:21;22.13;;;15.73;;
76155;SDS011;64906;51.290;7.348;2023-04-03T14:09:47;21.63;;;15.07;;
76155;SDS011;64906;51.290;7.348;2023-04-03T14:12:15;23.77;;;15.05;;
76155;SDS011;64906;51.290;7.348;2023-04-03T14:14:45;21.38;;;15.65;;
76155;SDS011;64906;51.290;7.348;2023-04-03T14:17:18;21.90;;;15.35;;
76155;SDS011;64906;51.290;7.348;2023-04-03T14:19:46;22.58;;;15.70;;
76155;SDS011;64906;51.290;7.348;2023-04-03T14:22:15;21.67;;;15.02;;
76155;SDS011;64906;51.290;7.348;2023-04-03T14:24:47;21.45;;;15.43;;
76155;SDS011;64906;51.290;7.348;2023-04-03T14:27:24;20.38;;;13.88;;
76155;SDS011;64906;51.290;7.348;2023-04-03T14:29:50;20.92;;;13.77;;
76155;SDS011;64906;51.290;7.348;2023-04-03T14:32:18;21.48;;;14.68;;
76155;SDS011;64906;51.290;7.348;2023-04-03T14:34:46;21.58;;;13.88;;
76155;SDS011;64906;51.290;7.348;2023-04-03T14:37:13;19.05;;;13.73;;
76155;SDS011;64906;51.290;7.348;2023-04-03T14:39:41;21.73;;;13.25;;
76155;SDS011;64906;51.290;7.348;2023-04-03T14:42:11;18.77;;;12.90;;
76155;SDS011;64906;51.290;7.348;2023-04-03T14:44:45;18.80;;;12.85;;
76155;SDS011;64906;51.290;7.348;2023-04-03T14:47:12;20.25;;;13.82;;
76155;SDS011;64906;51.290;7.348;2023-04-03T14:49:39;18.80;;;13.15;;
76155;SDS011;64906;51.290;7.348;2023-04-03T14:52:05;18.35;;;11.77;;
76155;SDS011;64906;51.290;7.348;2023-04-03T14:54:32;19.02;;;12.98;;
76155;SDS011;64906;51.290;7.348;2023-04-03T14:56:58;18.75;;;12.00;;
76155;SDS011;64906;51.290;7.348;2023-04-03T14:59:25;18.65;;;12.38;;
76155;SDS011;64906;51.290;7.348;2023-04-03T15:01:51;19.30;;;12.80;;
76155;SDS011;64906;51.290;7.348;2023-04-03T15:04:17;15.97;;;10.73;;
76155;SDS011;64906;51.290;7.348;2023-04-03T15:06:45;20.15;;;12.60;;
76155;SDS011;64906;51.290;7.348;2023-04-03T15:09:18;17.90;;;12.35;;
76155;SDS011;64906;51.290;7.348;2023-04-03T15:11:46;18.40;;;12.30;;
76155;SDS011;64906;51.290;7.348;2023-04-03T15:14:12;17.63;;;12.10;;
76155;SDS011;64906;51.290;7.348;2023-04-03T15:16:37;18.30;;;12.07;;
76155;SDS011;64906;51.290;7.348;2023-04-03T15:19:03;18.15;;;12.52;;
76155;SDS011;64906;51.290;7.348;2023-04-03T15:21:28;15.00;;;10.38;;
76155;SDS011;64906;51.290;7.348;2023-04-03T15:23:53;16.53;;;11.87;;
76155;SDS011;64906;51.290;7.348;2023-04-03T15:26:19;18.63;;;12.73;;
76155;SDS011;64906;51.290;7.348;2023-04-03T15:28:45;17.48;;;11.98;;
76155;SDS011;64906;51.290;7.348;2023-04-03T15:31:11;17.35;;;12.05;;
76155;SDS011;64906;51.290;7.348;2023-04-03T15:33:37;19.98;;;13.20;;
76155;SDS011;64906;51.290;7.348;2023-04-03T15:36:03;19.38;;;12.77;;
76155;SDS011;64906;51.290;7.348;2023-04-03T15:38:29;19.83;;;12.73;;
76155;SDS011;64906;51.290;7.348;2023-04-03T15:40:55;27.58;;;15.90;;
76155;SDS011;64906;51.290;7.348;2023-04-03T15:43:20;28.50;;;18.63;;
76155;SDS011;64906;51.290;7.348;2023-04-03T15:45:46;30.05;;;19.33;;
76155;SDS011;64906;51.290;7.348;2023-04-03T15:48:12;27.00;;;18.42;;
76155;SDS011;64906;51.290;7.348;2023-04-03T15:50:38;29.05;;;21.05;;
76155;SDS011;64906;51.290;7.348;2023-04-03T15:53:04;28.63;;;19.00;;
76155;SDS011;64906;51.290;7.348;2023-04-03T15:55:31;30.77;;;21.90;;
76155;SDS011;64906;51.290;7.348;2023-04-03T15:57:59;26.77;;;19.60;;
76155;SDS011;64906;51.290;7.348;2023-04-03T16:00:25;32.55;;;21.10;;
76155;SDS011;64906;51.290;7.348;2023-04-03T16:02:52;31.35;;;22.13;;
76155;SDS011;64906;51.290;7.348;2023-04-03T16:05:20;30.83;;;21.38;;
76155;SDS011;64906;51.290;7.348;2023-04-03T16:07:46;28.63;;;20.80;;
76155;SDS011;64906;51.290;7.348;2023-04-03T16:10:13;31.25;;;21.95;;
76155;SDS011;64906;51.290;7.348;2023-04-03T16:12:41;30.15;;;21.33;;
76155;SDS011;64906;51.290;7.348;2023-04-03T16:15:06;30.70;;;21.50;;
76155;SDS011;64906;51.290;7.348;2023-04-03T16:17:33;28.85;;;20.95;;
76155;SDS011;64906;51.290;7.348;2023-04-03T16:20:00;34.72;;;19.48;;
76155;SDS011;64906;51.290;7.348;2023-04-03T16:22:26;23.08;;;16.42;;
76155;SDS011;64906;51.290;7.348;2023-04-03T16:24:53;23.80;;;16.35;;